createdAt,value
2023-03-18T00:00:20.240Z,1004.86
2023-03-18T00:01:20.393Z,1004.83
2023-03-18T00:02:20.568Z,1004.87
2023-03-18T00:03:20.779Z,1004.81
2023-03-18T00:04:20.936Z,1004.88
2023-03-18T00:05:21.078Z,1004.84
2023-03-18T00:06:21.245Z,1004.87
2023-03-18T00:07:21.404Z,1004.86
2023-03-18T00:08:21.604Z,1004.84
2023-03-18T00:09:21.764Z,1004.86
2023-03-18T00:10:21.948Z,1004.84
2023-03-18T00:11:22.117Z,1004.88
2023-03-18T00:12:22.264Z,1004.89
2023-03-18T00:13:22.433Z,1004.87
2023-03-18T00:14:22.642Z,1004.88
2023-03-18T00:15:22.788Z,1004.86
2023-03-18T00:16:23.035Z,1004.85
2023-03-18T00:17:23.061Z,1004.83
2023-03-18T00:18:23.236Z,1004.87
2023-03-18T00:19:23.383Z,1004.83
2023-03-18T00:20:23.544Z,1004.83
2023-03-18T00:21:23.698Z,1004.82
2023-03-18T00:22:23.847Z,1004.82
2023-03-18T00:23:23.994Z,1004.89
2023-03-18T00:24:24.164Z,1004.84
2023-03-18T00:25:24.326Z,1004.83
2023-03-18T00:26:24.488Z,1004.85
2023-03-18T00:27:24.646Z,1004.78
2023-03-18T00:28:24.843Z,1004.76
2023-03-18T00:29:25.002Z,1004.76
2023-03-18T00:30:25.182Z,1004.71
2023-03-18T00:31:25.330Z,1004.68
2023-03-18T00:32:25.479Z,1004.77
2023-03-18T00:33:25.653Z,1004.84
2023-03-18T00:34:25.805Z,1004.91
2023-03-18T00:35:26.036Z,1004.86
2023-03-18T00:36:26.099Z,1004.88
2023-03-18T00:37:26.238Z,1004.90
2023-03-18T00:38:26.406Z,1004.88
2023-03-18T00:39:26.624Z,1004.83
2023-03-18T00:40:26.773Z,1004.85
2023-03-18T00:41:26.923Z,1004.81
2023-03-18T00:42:27.093Z,1004.83
2023-03-18T00:43:27.230Z,1004.84
2023-03-18T00:44:27.398Z,1004.80
2023-03-18T00:45:27.546Z,1004.80
2023-03-18T00:46:27.730Z,1004.83
2023-03-18T00:47:27.870Z,1004.83
2023-03-18T00:48:28.055Z,1004.86
2023-03-18T00:49:28.200Z,1004.84
2023-03-18T00:50:28.364Z,1004.86
2023-03-18T00:51:28.520Z,1004.82
2023-03-18T00:52:31.057Z,1004.79
2023-03-18T00:53:28.836Z,1004.75
2023-03-18T00:54:29.000Z,1004.78
2023-03-18T00:55:29.152Z,1004.80
2023-03-18T00:56:29.312Z,1004.79
2023-03-18T00:57:29.468Z,1004.75
2023-03-18T00:58:29.634Z,1004.78
2023-03-18T00:59:29.782Z,1004.81
2023-03-18T01:00:30.281Z,1004.83
2023-03-18T01:01:30.073Z,1004.76
2023-03-18T01:02:30.301Z,1004.74
2023-03-18T01:03:30.392Z,1004.78
2023-03-18T01:04:30.577Z,1004.80
2023-03-18T01:05:30.752Z,1004.78
2023-03-18T01:06:30.935Z,1004.82
2023-03-18T01:07:31.098Z,1004.82
2023-03-18T01:08:31.264Z,1004.80
2023-03-18T01:09:31.422Z,1004.77
2023-03-18T01:10:31.806Z,1004.81
2023-03-18T01:11:31.784Z,1004.77
2023-03-18T01:12:31.944Z,1004.73
2023-03-18T01:13:32.131Z,1004.73
2023-03-18T01:14:32.288Z,1004.68
2023-03-18T01:15:32.438Z,1004.71
2023-03-18T01:16:33.596Z,1004.70
2023-03-18T01:17:32.761Z,1004.74
2023-03-18T01:18:32.926Z,1004.74
2023-03-18T01:19:33.105Z,1004.74
2023-03-18T01:20:33.650Z,1004.69
2023-03-18T01:21:33.401Z,1004.73
2023-03-18T01:22:33.575Z,1004.73
2023-03-18T01:23:33.723Z,1004.69
2023-03-18T01:24:33.898Z,1004.69
2023-03-18T01:25:34.029Z,1004.71
2023-03-18T01:26:34.202Z,1004.75
2023-03-18T01:27:34.358Z,1004.74
2023-03-18T01:28:34.534Z,1004.72
2023-03-18T01:29:34.675Z,1004.69
2023-03-18T01:30:34.830Z,1004.72
2023-03-18T01:31:35.051Z,1004.67
2023-03-18T01:32:35.110Z,1004.65
2023-03-18T01:33:35.278Z,1004.67
2023-03-18T01:34:35.457Z,1004.66
2023-03-18T01:35:35.658Z,1004.69
2023-03-18T01:36:35.820Z,1004.66
2023-03-18T01:37:36.053Z,1004.70
2023-03-18T01:38:36.133Z,1004.68
2023-03-18T01:39:36.269Z,1004.63
2023-03-18T01:40:36.438Z,1004.60
2023-03-18T01:41:36.652Z,1004.63
2023-03-18T01:42:36.787Z,1004.62
2023-03-18T01:43:36.940Z,1004.62
2023-03-18T01:44:37.106Z,1004.68
2023-03-18T01:45:37.278Z,1004.68
2023-03-18T01:46:37.463Z,1004.67
2023-03-18T01:47:37.603Z,1004.67
2023-03-18T01:48:37.768Z,1004.65
2023-03-18T01:49:37.946Z,1004.62
2023-03-18T01:50:38.105Z,1004.58
2023-03-18T01:51:38.257Z,1004.64
2023-03-18T01:52:38.410Z,1004.62
2023-03-18T01:53:38.563Z,1004.64
2023-03-18T01:54:38.738Z,1004.66
2023-03-18T01:55:38.898Z,1004.71
2023-03-18T01:56:39.069Z,1004.69
2023-03-18T01:57:39.239Z,1004.72
2023-03-18T01:58:39.442Z,1004.72
2023-03-18T01:59:39.609Z,1004.72
2023-03-18T02:00:39.810Z,1004.66
2023-03-18T02:01:39.957Z,1004.66
2023-03-18T02:02:40.133Z,1004.68
2023-03-18T02:03:40.346Z,1004.70
2023-03-18T02:04:40.434Z,1004.76
2023-03-18T02:05:40.620Z,1004.74
2023-03-18T02:06:40.790Z,1004.74
2023-03-18T02:07:40.948Z,1004.74
2023-03-18T02:08:41.139Z,1004.76
2023-03-18T02:09:41.298Z,1004.76
2023-03-18T02:10:41.459Z,1004.80
2023-03-18T02:11:41.620Z,1004.76
2023-03-18T02:12:41.770Z,1004.80
2023-03-18T02:13:41.949Z,1004.70
2023-03-18T02:14:42.121Z,1004.70
2023-03-18T02:15:42.272Z,1004.72
2023-03-18T02:16:42.527Z,1004.69
2023-03-18T02:17:42.583Z,1004.68
2023-03-18T02:18:42.769Z,1004.68
2023-03-18T02:19:42.952Z,1004.72
2023-03-18T02:20:43.126Z,1004.68
2023-03-18T02:21:43.271Z,1004.67
2023-03-18T02:22:43.444Z,1004.72
2023-03-18T02:23:43.605Z,1004.69
2023-03-18T02:24:43.791Z,1004.64
2023-03-18T02:25:43.931Z,1004.70
2023-03-18T02:26:44.077Z,1004.68
2023-03-18T02:27:44.227Z,1004.65
2023-03-18T02:28:44.405Z,1004.64
2023-03-18T02:29:44.572Z,1004.68
2023-03-18T02:30:44.805Z,1004.70
2023-03-18T02:31:44.950Z,1004.66
2023-03-18T02:32:45.159Z,1004.65
2023-03-18T02:33:45.324Z,1004.71
2023-03-18T02:34:45.486Z,1004.72
2023-03-18T02:35:45.650Z,1004.66
2023-03-18T02:36:45.796Z,1004.64
2023-03-18T02:37:45.963Z,1004.66
2023-03-18T02:38:46.139Z,1004.66
2023-03-18T02:39:46.276Z,1004.70
2023-03-18T02:40:46.464Z,1004.68
2023-03-18T02:41:46.614Z,1004.61
2023-03-18T02:42:46.804Z,1004.66
2023-03-18T02:43:46.963Z,1004.62
2023-03-18T02:44:47.146Z,1004.66
2023-03-18T02:45:47.354Z,1004.61
2023-03-18T02:46:47.488Z,1004.62
2023-03-18T02:47:47.648Z,1004.67
2023-03-18T02:48:47.845Z,1004.64
2023-03-18T02:49:48.012Z,1004.65
2023-03-18T02:50:48.184Z,1004.63
2023-03-18T02:51:48.355Z,1004.64
2023-03-18T02:52:48.526Z,1004.61
2023-03-18T02:53:48.706Z,1004.61
2023-03-18T02:54:48.867Z,1004.61
2023-03-18T02:55:49.014Z,1004.60
2023-03-18T02:56:49.181Z,1004.63
2023-03-18T02:57:49.336Z,1004.61
2023-03-18T02:58:51.650Z,1004.58
2023-03-18T02:59:49.653Z,1004.56
2023-03-18T03:00:49.811Z,1004.55
2023-03-18T03:01:50.006Z,1004.60
2023-03-18T03:02:50.192Z,1004.59
2023-03-18T03:03:50.265Z,1004.58
2023-03-18T03:04:50.433Z,1004.57
2023-03-18T03:05:50.574Z,1004.55
2023-03-18T03:06:50.730Z,1004.54
2023-03-18T03:07:50.885Z,1004.55
2023-03-18T03:08:51.065Z,1004.60
2023-03-18T03:09:51.215Z,1004.55
2023-03-18T03:10:51.378Z,1004.58
2023-03-18T03:11:51.572Z,1004.59
2023-03-18T03:12:51.742Z,1004.57
2023-03-18T03:13:51.928Z,1004.60
2023-03-18T03:14:52.074Z,1004.61
2023-03-18T03:15:52.316Z,1004.59
2023-03-18T03:16:52.392Z,1004.68
2023-03-18T03:17:52.497Z,1004.67
2023-03-18T03:18:52.670Z,1004.71
2023-03-18T03:19:52.826Z,1004.73
2023-03-18T03:20:52.981Z,1004.70
2023-03-18T03:21:53.166Z,1004.69
2023-03-18T03:22:53.333Z,1004.75
2023-03-18T03:23:53.529Z,1004.72
2023-03-18T03:24:57.147Z,1004.73
2023-03-18T03:25:53.850Z,1004.76
2023-03-18T03:26:54.020Z,1004.71
2023-03-18T03:27:54.208Z,1004.70
2023-03-18T03:28:54.368Z,1004.68
2023-03-18T03:29:54.535Z,1004.68
2023-03-18T03:30:54.716Z,1004.67
2023-03-18T03:31:54.884Z,1004.72
2023-03-18T03:32:55.091Z,1004.66
2023-03-18T03:33:55.250Z,1004.72
2023-03-18T03:34:55.400Z,1004.72
2023-03-18T03:35:55.594Z,1004.72
2023-03-18T03:36:55.738Z,1004.73
2023-03-18T03:37:55.911Z,1004.73
2023-03-18T03:38:56.079Z,1004.69
2023-03-18T03:39:56.242Z,1004.72
2023-03-18T03:40:56.419Z,1004.71
2023-03-18T03:41:56.600Z,1004.63
2023-03-18T03:42:56.770Z,1004.66
2023-03-18T03:43:56.969Z,1004.66
2023-03-18T03:44:57.120Z,1004.62
2023-03-18T03:45:57.262Z,1004.63
2023-03-18T03:46:57.410Z,1004.59
2023-03-18T03:47:57.574Z,1004.64
2023-03-18T03:48:57.728Z,1004.62
2023-03-18T03:49:57.881Z,1004.64
2023-03-18T03:51:05.045Z,1004.65
2023-03-18T03:51:58.177Z,1004.68
2023-03-18T03:52:58.335Z,1004.66
2023-03-18T03:53:58.490Z,1004.69
2023-03-18T03:54:58.636Z,1004.71
2023-03-18T03:55:59.360Z,1004.72
2023-03-18T03:56:59.093Z,1004.69
2023-03-18T03:57:59.143Z,1004.70
2023-03-18T03:58:59.292Z,1004.66
2023-03-18T03:59:59.438Z,1004.71
2023-03-18T04:00:59.572Z,1004.72
2023-03-18T04:01:59.719Z,1004.67
2023-03-18T04:02:59.899Z,1004.67
2023-03-18T04:04:00.117Z,1004.68
2023-03-18T04:05:00.223Z,1004.67
2023-03-18T04:06:00.350Z,1004.70
2023-03-18T04:07:00.481Z,1004.73
2023-03-18T04:08:00.647Z,1004.75
2023-03-18T04:09:00.800Z,1004.73
2023-03-18T04:10:00.949Z,1004.73
2023-03-18T04:11:01.097Z,1004.72
2023-03-18T04:12:01.253Z,1004.72
2023-03-18T04:13:01.447Z,1004.77
2023-03-18T04:14:01.608Z,1004.80
2023-03-18T04:15:05.612Z,1004.82
2023-03-18T04:16:02.053Z,1004.85
2023-03-18T04:17:02.123Z,1004.85
2023-03-18T04:18:02.288Z,1004.87
2023-03-18T04:19:02.460Z,1004.87
2023-03-18T04:20:02.629Z,1004.87
2023-03-18T04:21:02.779Z,1004.87
2023-03-18T04:22:02.953Z,1004.88
2023-03-18T04:23:03.104Z,1004.86
2023-03-18T04:24:03.269Z,1004.89
2023-03-18T04:25:03.429Z,1004.83
2023-03-18T04:26:03.605Z,1004.85
2023-03-18T04:27:03.757Z,1004.86
2023-03-18T04:28:03.932Z,1004.87
2023-03-18T04:29:04.090Z,1004.90
2023-03-18T04:30:04.239Z,1004.89
2023-03-18T04:31:04.471Z,1004.91
2023-03-18T04:32:04.543Z,1004.91
2023-03-18T04:33:04.750Z,1004.89
2023-03-18T04:34:04.874Z,1004.88
2023-03-18T04:35:05.060Z,1004.90
2023-03-18T04:36:05.245Z,1004.89
2023-03-18T04:37:05.322Z,1004.90
2023-03-18T04:38:05.509Z,1004.89
2023-03-18T04:39:05.663Z,1004.92
2023-03-18T04:40:05.823Z,1004.93
2023-03-18T04:41:05.987Z,1004.98
2023-03-18T04:42:06.143Z,1004.94
2023-03-18T04:43:06.292Z,1004.93
2023-03-18T04:44:06.471Z,1004.93
2023-03-18T04:45:06.583Z,1004.97
2023-03-18T04:46:06.719Z,1004.95
2023-03-18T04:47:06.898Z,1005.02
2023-03-18T04:48:07.032Z,1005.01
2023-03-18T04:49:07.174Z,1005.02
2023-03-18T04:50:07.343Z,1005.01
2023-03-18T04:51:07.488Z,1005.06
2023-03-18T04:52:07.654Z,1005.04
2023-03-18T04:53:07.798Z,1004.99
2023-03-18T04:54:07.969Z,1005.05
2023-03-18T04:55:08.175Z,1005.04
2023-03-18T04:56:08.295Z,1005.06
2023-03-18T04:57:08.445Z,1005.09
2023-03-18T04:58:08.622Z,1005.08
2023-03-18T04:59:08.775Z,1005.10
2023-03-18T05:00:11.370Z,1005.08
2023-03-18T05:01:09.077Z,1005.05
2023-03-18T05:02:09.256Z,1005.07
2023-03-18T05:03:09.409Z,1005.07
2023-03-18T05:04:09.603Z,1005.15
2023-03-18T05:05:09.745Z,1005.16
2023-03-18T05:06:09.933Z,1005.17
2023-03-18T05:07:10.084Z,1005.17
2023-03-18T05:08:10.263Z,1005.10
2023-03-18T05:09:10.408Z,1005.07
2023-03-18T05:10:10.576Z,1005.10
2023-03-18T05:11:10.734Z,1005.16
2023-03-18T05:12:10.875Z,1005.13
2023-03-18T05:13:11.062Z,1005.13
2023-03-18T05:14:11.230Z,1005.10
2023-03-18T05:15:12.141Z,1005.14
2023-03-18T05:16:11.564Z,1005.12
2023-03-18T05:17:11.702Z,1005.08
2023-03-18T05:18:11.865Z,1005.11
2023-03-18T05:19:12.852Z,1005.10
2023-03-18T05:20:12.249Z,1005.08
2023-03-18T05:21:12.392Z,1005.09
2023-03-18T05:22:12.549Z,1005.09
2023-03-18T05:23:12.700Z,1005.08
2023-03-18T05:24:12.881Z,1005.09
2023-03-18T05:25:13.025Z,1005.09
2023-03-18T05:26:13.177Z,1005.09
2023-03-18T05:27:13.379Z,1005.06
2023-03-18T05:28:13.529Z,1005.08
2023-03-18T05:29:14.859Z,1005.03
2023-03-18T05:30:13.787Z,1005.04
2023-03-18T05:31:13.952Z,1005.05
2023-03-18T05:32:14.098Z,1005.10
2023-03-18T05:33:14.251Z,1005.07
2023-03-18T05:34:14.439Z,1005.06
2023-03-18T05:35:14.583Z,1005.09
2023-03-18T05:36:14.734Z,1005.06
2023-03-18T05:37:14.896Z,1005.06
2023-03-18T05:38:15.086Z,1005.06
2023-03-18T05:39:15.256Z,1005.07
2023-03-18T05:40:15.414Z,1005.09
2023-03-18T05:41:15.593Z,1005.06
2023-03-18T05:42:15.759Z,1005.10
2023-03-18T05:43:15.936Z,1005.12
2023-03-18T05:44:16.099Z,1005.12
2023-03-18T05:45:16.285Z,1005.11
2023-03-18T05:46:16.487Z,1005.15
2023-03-18T05:47:16.566Z,1005.14
2023-03-18T05:48:16.717Z,1005.19
2023-03-18T05:49:16.885Z,1005.17
2023-03-18T05:50:17.046Z,1005.20
2023-03-18T05:51:17.189Z,1005.20
2023-03-18T05:52:17.357Z,1005.21
2023-03-18T05:53:17.504Z,1005.21
2023-03-18T05:54:17.679Z,1005.20
2023-03-18T05:55:17.829Z,1005.21
2023-03-18T05:56:17.987Z,1005.26
2023-03-18T05:57:18.124Z,1005.23
2023-03-18T05:58:18.310Z,1005.24
2023-03-18T05:59:18.480Z,1005.25
2023-03-18T06:00:18.661Z,1005.28
2023-03-18T06:01:18.823Z,1005.17
2023-03-18T06:02:18.980Z,1005.19
2023-03-18T06:03:19.149Z,1005.15
2023-03-18T06:04:19.414Z,1005.17
2023-03-18T06:05:19.550Z,1005.19
2023-03-18T06:06:19.766Z,1005.16
2023-03-18T06:07:19.806Z,1005.17
2023-03-18T06:08:19.971Z,1005.14
2023-03-18T06:09:20.140Z,1005.14
2023-03-18T06:10:20.295Z,1005.12
2023-03-18T06:11:20.471Z,1005.11
2023-03-18T06:12:20.632Z,1005.16
2023-03-18T06:13:20.775Z,1005.17
2023-03-18T06:14:20.941Z,1005.14
2023-03-18T06:15:21.100Z,1005.17
2023-03-18T06:16:21.269Z,1005.18
2023-03-18T06:17:21.399Z,1005.21
2023-03-18T06:18:21.552Z,1005.23
2023-03-18T06:19:21.752Z,1005.22
2023-03-18T06:20:21.912Z,1005.21
2023-03-18T06:21:22.058Z,1005.24
2023-03-18T06:22:22.219Z,1005.25
2023-03-18T06:23:22.365Z,1005.27
2023-03-18T06:24:22.532Z,1005.28
2023-03-18T06:25:22.679Z,1005.28
2023-03-18T06:26:22.836Z,1005.34
2023-03-18T06:27:22.982Z,1005.29
2023-03-18T06:28:23.137Z,1005.36
2023-03-18T06:29:23.311Z,1005.35
2023-03-18T06:30:23.467Z,1005.37
2023-03-18T06:31:23.707Z,1005.38
2023-03-18T06:32:23.830Z,1005.41
2023-03-18T06:33:23.969Z,1005.43
2023-03-18T06:34:25.103Z,1005.48
2023-03-18T06:35:24.246Z,1005.48
2023-03-18T06:36:24.400Z,1005.50
2023-03-18T06:37:24.552Z,1005.47
2023-03-18T06:38:24.720Z,1005.36
2023-03-18T06:39:24.882Z,1005.34
2023-03-18T06:40:25.048Z,1005.30
2023-03-18T06:41:25.187Z,1005.29
2023-03-18T06:42:25.585Z,1005.28
2023-03-18T06:43:25.496Z,1005.32
2023-03-18T06:44:25.666Z,1005.29
2023-03-18T06:45:25.855Z,1005.25
2023-03-18T06:46:26.100Z,1005.31
2023-03-18T06:47:26.110Z,1005.32
2023-03-18T06:48:26.275Z,1005.33
2023-03-18T06:49:26.428Z,1005.33
2023-03-18T06:50:26.582Z,1005.31
2023-03-18T06:51:26.711Z,1005.33
2023-03-18T06:52:26.861Z,1005.33
2023-03-18T06:53:27.009Z,1005.37
2023-03-18T06:54:27.213Z,1005.37
2023-03-18T06:55:27.341Z,1005.38
2023-03-18T06:56:27.491Z,1005.37
2023-03-18T06:57:27.643Z,1005.41
2023-03-18T06:58:27.769Z,1005.40
2023-03-18T06:59:27.919Z,1005.45
2023-03-18T07:00:28.083Z,1005.55
2023-03-18T07:01:28.221Z,1005.52
2023-03-18T07:02:28.345Z,1005.57
2023-03-18T07:03:28.488Z,1005.56
2023-03-18T07:04:28.722Z,1005.57
2023-03-18T07:05:28.758Z,1005.55
2023-03-18T07:06:28.897Z,1005.61
2023-03-18T07:07:29.067Z,1005.66
2023-03-18T07:08:29.187Z,1005.66
2023-03-18T07:09:29.354Z,1005.76
2023-03-18T07:10:29.481Z,1005.76
2023-03-18T07:11:29.626Z,1005.76
2023-03-18T07:12:29.757Z,1005.82
2023-03-18T07:13:29.896Z,1005.82
2023-03-18T07:14:30.044Z,1005.80
2023-03-18T07:15:30.183Z,1005.82
2023-03-18T07:16:30.389Z,1005.80
2023-03-18T07:17:30.408Z,1005.81
2023-03-18T07:18:30.543Z,1005.84
2023-03-18T07:19:30.700Z,1005.73
2023-03-18T07:20:30.823Z,1005.75
2023-03-18T07:21:30.972Z,1005.72
2023-03-18T07:22:31.096Z,1005.72
2023-03-18T07:23:31.241Z,1005.72
2023-03-18T07:24:31.381Z,1005.75
2023-03-18T07:25:31.732Z,1005.69
2023-03-18T07:26:31.629Z,1005.67
2023-03-18T07:27:31.777Z,1005.66
2023-03-18T07:28:31.897Z,1005.68
2023-03-18T07:29:32.075Z,1005.64
2023-03-18T07:30:32.201Z,1005.63
2023-03-18T07:31:32.379Z,1005.66
2023-03-18T07:32:32.536Z,1005.68
2023-03-18T07:33:32.661Z,1005.78
2023-03-18T07:34:32.811Z,1005.76
2023-03-18T07:35:33.159Z,1005.77
2023-03-18T07:36:33.027Z,1005.78
2023-03-18T07:37:33.171Z,1005.81
2023-03-18T07:38:33.270Z,1005.80
2023-03-18T07:39:33.430Z,1005.77
2023-03-18T07:40:33.527Z,1005.79
2023-03-18T07:41:35.444Z,1005.81
2023-03-18T07:42:33.789Z,1005.77
2023-03-18T07:43:33.917Z,1005.76
2023-03-18T07:44:34.046Z,1005.76
2023-03-18T07:45:34.313Z,1005.80
2023-03-18T07:46:34.458Z,1005.87
2023-03-18T07:47:34.485Z,1005.86
2023-03-18T07:48:34.604Z,1005.95
2023-03-18T07:49:34.722Z,1005.91
2023-03-18T07:50:34.813Z,1005.94
2023-03-18T07:51:34.919Z,1005.93
2023-03-18T07:52:35.004Z,1005.92
2023-03-18T07:53:35.098Z,1005.90
2023-03-18T07:54:35.216Z,1005.87
2023-03-18T07:55:35.348Z,1005.94
2023-03-18T07:56:35.431Z,1006.03
2023-03-18T07:57:35.527Z,1006.03
2023-03-18T07:58:35.714Z,1006.08
2023-03-18T07:59:35.741Z,1006.10
2023-03-18T08:00:35.732Z,1006.08
2023-03-18T08:01:35.825Z,1006.11
2023-03-18T08:02:35.912Z,1006.13
2023-03-18T08:03:36.099Z,1006.08
2023-03-18T08:04:36.149Z,1006.08
2023-03-18T08:05:36.244Z,1006.03
2023-03-18T08:06:36.319Z,1006.06
2023-03-18T08:07:36.424Z,1006.11
2023-03-18T08:08:36.496Z,1006.03
2023-03-18T08:09:36.596Z,1006.05
2023-03-18T08:10:36.692Z,1006.00
2023-03-18T08:11:37.026Z,1006.05
2023-03-18T08:12:51.598Z,1006.04
2023-03-18T08:13:37.933Z,1006.01
2023-03-18T08:14:37.014Z,1006.03
2023-03-18T08:15:37.097Z,1006.01
2023-03-18T08:16:37.231Z,1006.05
2023-03-18T08:17:37.298Z,1005.97
2023-03-18T08:18:37.375Z,1005.93
2023-03-18T08:19:37.511Z,1005.94
2023-03-18T08:20:37.562Z,1006.03
2023-03-18T08:21:37.653Z,1005.90
2023-03-18T08:22:37.727Z,1005.98
2023-03-18T08:23:37.825Z,1006.01
2023-03-18T08:24:37.896Z,1005.96
2023-03-18T08:25:37.968Z,1006.05
2023-03-18T08:26:38.032Z,1006.02
2023-03-18T08:27:38.113Z,1006.04
2023-03-18T08:28:38.186Z,1006.08
2023-03-18T08:29:38.268Z,1006.10
2023-03-18T08:30:38.303Z,1006.09
2023-03-18T08:31:38.413Z,1006.11
2023-03-18T08:32:38.453Z,1006.12
2023-03-18T08:33:38.419Z,1006.09
2023-03-18T08:34:38.486Z,1006.10
2023-03-18T08:35:38.627Z,1006.10
2023-03-18T08:36:38.576Z,1006.16
2023-03-18T08:37:38.652Z,1006.05
2023-03-18T08:38:38.690Z,1006.10
2023-03-18T08:39:38.770Z,1006.02
2023-03-18T08:40:38.826Z,1006.12
2023-03-18T08:41:38.903Z,1006.08
2023-03-18T08:42:38.955Z,1006.05
2023-03-18T08:43:39.250Z,1006.05
2023-03-18T08:44:39.100Z,1006.00
2023-03-18T08:45:39.210Z,1006.02
2023-03-18T08:46:39.184Z,1006.03
2023-03-18T08:47:39.244Z,1006.03
2023-03-18T08:48:39.317Z,1006.00
2023-03-18T08:49:39.459Z,1005.95
2023-03-18T08:50:39.414Z,1006.00
2023-03-18T08:51:39.493Z,1005.95
2023-03-18T08:52:39.571Z,1006.05
2023-03-18T08:53:39.673Z,1006.02
2023-03-18T08:54:39.749Z,1006.01
2023-03-18T08:55:39.872Z,1006.03
2023-03-18T08:56:39.923Z,1006.04
2023-03-18T08:57:40.030Z,1006.06
2023-03-18T08:58:40.098Z,1006.17
2023-03-18T08:59:40.199Z,1006.12
2023-03-18T09:00:40.277Z,1006.16
2023-03-18T09:01:40.423Z,1006.21
2023-03-18T09:02:40.359Z,1006.21
2023-03-18T09:03:40.548Z,1006.20
2023-03-18T09:04:40.586Z,1006.18
2023-03-18T09:05:40.666Z,1006.13
2023-03-18T09:06:40.726Z,1006.18
2023-03-18T09:07:40.821Z,1006.19
2023-03-18T09:08:40.891Z,1006.21
2023-03-18T09:09:43.951Z,1006.21
2023-03-18T09:10:41.089Z,1006.21
2023-03-18T09:11:41.169Z,1006.23
2023-03-18T09:12:41.238Z,1006.19
2023-03-18T09:13:41.314Z,1006.25
2023-03-18T09:14:41.389Z,1006.15
2023-03-18T09:15:41.459Z,1006.19
2023-03-18T09:16:41.611Z,1006.16
2023-03-18T09:17:56.647Z,1006.25
2023-03-18T09:18:44.845Z,1006.20
2023-03-18T09:19:41.636Z,1006.22
2023-03-18T09:20:41.760Z,1006.24
2023-03-18T09:21:41.807Z,1006.18
2023-03-18T09:22:41.886Z,1006.13
2023-03-18T09:23:41.995Z,1006.19
2023-03-18T09:24:42.073Z,1006.20
2023-03-18T09:25:42.130Z,1006.17
2023-03-18T09:26:42.178Z,1006.20
2023-03-18T09:27:42.235Z,1006.19
2023-03-18T09:28:42.282Z,1006.21
2023-03-18T09:29:42.381Z,1006.25
2023-03-18T09:30:42.438Z,1006.23
2023-03-18T09:31:42.501Z,1006.28
2023-03-18T09:32:42.564Z,1006.29
2023-03-18T09:33:42.652Z,1006.31
2023-03-18T09:34:42.698Z,1006.29
2023-03-18T09:35:42.813Z,1006.31
2023-03-18T09:36:42.744Z,1006.31
2023-03-18T09:37:42.797Z,1006.32
2023-03-18T09:38:42.835Z,1006.33
2023-03-18T09:39:42.902Z,1006.37
2023-03-18T09:40:42.944Z,1006.38
2023-03-18T09:41:42.991Z,1006.40
2023-03-18T09:42:43.051Z,1006.39
2023-03-18T09:43:43.200Z,1006.38
2023-03-18T09:44:43.160Z,1006.43
2023-03-18T09:45:43.247Z,1006.39
2023-03-18T09:46:43.386Z,1006.38
2023-03-18T09:47:43.300Z,1006.38
2023-03-18T09:48:43.231Z,1006.38
2023-03-18T09:49:43.293Z,1006.38
2023-03-18T09:50:43.331Z,1006.38
2023-03-18T09:51:50.376Z,1006.38
2023-03-18T09:52:43.441Z,1006.34
2023-03-18T09:53:46.163Z,1006.35
2023-03-18T09:54:44.364Z,1006.38
2023-03-18T09:55:43.417Z,1006.38
2023-03-18T09:56:43.443Z,1006.37
2023-03-18T09:57:43.490Z,1006.36
2023-03-18T09:58:43.527Z,1006.35
2023-03-18T09:59:43.564Z,1006.33
2023-03-18T10:00:43.614Z,1006.34
2023-03-18T10:01:43.664Z,1006.32
2023-03-18T10:02:43.603Z,1006.36
2023-03-18T10:03:43.697Z,1006.35
2023-03-18T10:04:43.664Z,1006.29
2023-03-18T10:05:43.688Z,1006.35
2023-03-18T10:06:43.712Z,1006.41
2023-03-18T10:07:43.740Z,1006.37
2023-03-18T10:08:43.762Z,1006.35
2023-03-18T10:09:43.785Z,1006.36
2023-03-18T10:10:43.811Z,1006.35
2023-03-18T10:11:43.838Z,1006.26
2023-03-18T10:12:43.867Z,1006.28
2023-03-18T10:13:43.877Z,1006.32
2023-03-18T10:14:43.934Z,1006.28
2023-03-18T10:15:43.848Z,1006.28
2023-03-18T10:16:43.843Z,1006.28
2023-03-18T10:17:43.845Z,1006.28
2023-03-18T10:18:43.856Z,1006.24
2023-03-18T10:19:43.843Z,1006.24
2023-03-18T10:20:43.855Z,1006.21
2023-03-18T10:21:43.860Z,1006.22
2023-03-18T10:22:43.877Z,1006.17
2023-03-18T10:23:43.878Z,1006.22
2023-03-18T10:24:43.880Z,1006.19
2023-03-18T10:25:43.898Z,1006.08
2023-03-18T10:26:43.906Z,1006.16
2023-03-18T10:27:43.901Z,1006.08
2023-03-18T10:28:43.921Z,1006.10
2023-03-18T10:29:43.925Z,1006.16
2023-03-18T10:30:43.935Z,1006.18
2023-03-18T10:31:43.959Z,1006.27
2023-03-18T10:32:49.901Z,1006.15
2023-03-18T10:33:44.937Z,1006.19
2023-03-18T10:34:43.962Z,1006.09
2023-03-18T10:35:43.999Z,1006.17
2023-03-18T10:36:44.050Z,1006.19
2023-03-18T10:37:45.010Z,1006.20
2023-03-18T10:38:44.035Z,1006.31
2023-03-18T10:39:44.072Z,1006.32
2023-03-18T10:40:44.125Z,1006.30
2023-03-18T10:41:44.161Z,1006.27
2023-03-18T10:42:44.197Z,1006.23
2023-03-18T10:43:44.205Z,1006.24
2023-03-18T10:44:44.213Z,1006.19
2023-03-18T10:45:44.229Z,1006.26
2023-03-18T10:46:44.444Z,1006.28
2023-03-18T10:47:44.267Z,1006.31
2023-03-18T10:48:44.289Z,1006.28
2023-03-18T10:49:44.294Z,1006.29
2023-03-18T10:50:44.325Z,1006.30
2023-03-18T10:51:44.327Z,1006.32
2023-03-18T10:52:44.347Z,1006.24
2023-03-18T10:53:44.354Z,1006.27
2023-03-18T10:54:44.407Z,1006.29
2023-03-18T10:55:44.326Z,1006.27
2023-03-18T10:56:44.347Z,1006.31
2023-03-18T10:57:44.347Z,1006.29
2023-03-18T10:58:44.374Z,1006.33
2023-03-18T10:59:44.393Z,1006.28
2023-03-18T11:00:44.427Z,1006.29
2023-03-18T11:01:44.524Z,1006.32
2023-03-18T11:02:44.500Z,1006.32
2023-03-18T11:03:44.386Z,1006.27
2023-03-18T11:04:44.396Z,1006.34
2023-03-18T11:05:44.412Z,1006.30
2023-03-18T11:06:44.443Z,1006.28
2023-03-18T11:07:44.450Z,1006.32
2023-03-18T11:08:44.442Z,1006.21
2023-03-18T11:09:44.427Z,1006.17
2023-03-18T11:10:44.443Z,1006.12
2023-03-18T11:11:44.442Z,1006.18
2023-03-18T11:12:44.446Z,1006.08
2023-03-18T11:13:44.481Z,1006.08
2023-03-18T11:14:44.506Z,1006.11
2023-03-18T11:15:44.590Z,1006.08
2023-03-18T11:16:44.527Z,1006.08
2023-03-18T11:17:44.527Z,1006.05
2023-03-18T11:18:44.603Z,1006.07
2023-03-18T11:19:44.588Z,1006.01
2023-03-18T11:20:44.640Z,1005.97
2023-03-18T11:21:44.592Z,1006.02
2023-03-18T11:22:44.631Z,1005.98
2023-03-18T11:23:44.669Z,1006.07
2023-03-18T11:24:44.725Z,1006.03
2023-03-18T11:25:44.777Z,1006.04
2023-03-18T11:26:44.834Z,1005.94
2023-03-18T11:27:44.859Z,1006.00
2023-03-18T11:28:44.923Z,1006.04
2023-03-18T11:29:46.723Z,1006.02
2023-03-18T11:30:45.400Z,1006.00
2023-03-18T11:31:45.107Z,1006.04
2023-03-18T11:32:45.071Z,1005.98
2023-03-18T11:33:45.112Z,1006.07
2023-03-18T11:34:45.159Z,1006.06
2023-03-18T11:35:45.274Z,1006.11
2023-03-18T11:36:45.217Z,1006.11
2023-03-18T11:37:45.258Z,1006.10
2023-03-18T11:38:45.311Z,1006.13
2023-03-18T11:39:45.346Z,1006.16
2023-03-18T11:40:45.416Z,1006.13
2023-03-18T11:41:45.459Z,1006.18
2023-03-18T11:42:45.525Z,1006.14
2023-03-18T11:43:45.569Z,1006.13
2023-03-18T11:44:45.631Z,1006.19
2023-03-18T11:45:45.688Z,1006.17
2023-03-18T11:46:45.928Z,1006.18
2023-03-18T11:47:45.774Z,1006.24
2023-03-18T11:48:45.825Z,1006.17
2023-03-18T11:49:45.873Z,1006.15
2023-03-18T11:50:45.929Z,1006.27
2023-03-18T11:51:45.981Z,1006.18
2023-03-18T11:52:46.059Z,1006.12
2023-03-18T11:53:46.108Z,1006.11
2023-03-18T11:54:46.151Z,1006.10
2023-03-18T11:55:46.215Z,1006.06
2023-03-18T11:56:46.248Z,1006.10
2023-03-18T11:57:46.285Z,1006.20
2023-03-18T11:58:46.335Z,1006.12
2023-03-18T11:59:46.359Z,1006.19
2023-03-18T12:00:46.423Z,1006.25
2023-03-18T12:01:46.466Z,1006.20
2023-03-18T12:02:46.487Z,1006.23
2023-03-18T12:03:46.495Z,1006.24
2023-03-18T12:04:46.564Z,1006.20
2023-03-18T12:05:46.552Z,1006.16
2023-03-18T12:06:46.557Z,1006.19